sensor_id;sensor_type;location;lat;lon;timestamp;temperature;humidity
37594;DHT22;23441;50.856;6.076;2022-07-22T00:01:34;16.10;99.90
37594;DHT22;23441;50.856;6.076;2022-07-22T00:04:00;16.10;99.90
37594;DHT22;23441;50.856;6.076;2022-07-22T00:06:27;16.10;99.90
37594;DHT22;23441;50.856;6.076;2022-07-22T00:08:54;16.20;99.90
37594;DHT22;23441;50.856;6.076;2022-07-22T00:11:21;16.20;99.90
37594;DHT22;23441;50.856;6.076;2022-07-22T00:13:47;16.20;99.90
37594;DHT22;23441;50.856;6.076;2022-07-22T00:16:14;16.20;99.90
37594;DHT22;23441;50.856;6.076;2022-07-22T00:18:40;16.30;99.90
37594;DHT22;23441;50.856;6.076;2022-07-22T00:21:06;16.20;99.90
37594;DHT22;23441;50.856;6.076;2022-07-22T00:23:32;16.20;99.90
37594;DHT22;23441;50.856;6.076;2022-07-22T00:25:58;16.20;99.90
37594;DHT22;23441;50.856;6.076;2022-07-22T00:28:24;16.20;99.90
37594;DHT22;23441;50.856;6.076;2022-07-22T00:30:50;16.20;99.90
37594;DHT22;23441;50.856;6.076;2022-07-22T00:33:16;16.20;99.90
37594;DHT22;23441;50.856;6.076;2022-07-22T00:35:42;16.20;99.90
37594;DHT22;23441;50.856;6.076;2022-07-22T00:38:08;16.20;99.90
37594;DHT22;23441;50.856;6.076;2022-07-22T00:40:34;16.20;99.90
37594;DHT22;23441;50.856;6.076;2022-07-22T00:43:00;16.30;99.90
37594;DHT22;23441;50.856;6.076;2022-07-22T00:45:26;16.20;99.90
37594;DHT22;23441;50.856;6.076;2022-07-22T00:47:52;16.20;99.90
37594;DHT22;23441;50.856;6.076;2022-07-22T00:50:18;16.30;99.90
37594;DHT22;23441;50.856;6.076;2022-07-22T00:52:45;16.30;99.90
37594;DHT22;23441;50.856;6.076;2022-07-22T00:55:12;16.20;99.90
37594;DHT22;23441;50.856;6.076;2022-07-22T00:57:38;16.20;99.90
37594;DHT22;23441;50.856;6.076;2022-07-22T01:00:06;16.20;99.90
37594;DHT22;23441;50.856;6.076;2022-07-22T01:02:35;16.20;99.90
37594;DHT22;23441;50.856;6.076;2022-07-22T01:05:01;16.20;99.90
37594;DHT22;23441;50.856;6.076;2022-07-22T01:07:27;16.20;99.90
37594;DHT22;23441;50.856;6.076;2022-07-22T01:09:53;16.20;99.90
37594;DHT22;23441;50.856;6.076;2022-07-22T01:12:19;16.10;99.90
37594;DHT22;23441;50.856;6.076;2022-07-22T01:14:44;16.20;99.90
37594;DHT22;23441;50.856;6.076;2022-07-22T01:17:10;16.10;99.90
37594;DHT22;23441;50.856;6.076;2022-07-22T01:19:37;16.10;99.90
37594;DHT22;23441;50.856;6.076;2022-07-22T01:22:04;16.10;99.90
37594;DHT22;23441;50.856;6.076;2022-07-22T01:24:30;16.10;99.90
37594;DHT22;23441;50.856;6.076;2022-07-22T01:26:56;16.10;99.90
37594;DHT22;23441;50.856;6.076;2022-07-22T01:29:22;16.10;99.90
37594;DHT22;23441;50.856;6.076;2022-07-22T01:31:49;16.10;99.90
37594;DHT22;23441;50.856;6.076;2022-07-22T01:34:15;16.00;99.90
37594;DHT22;23441;50.856;6.076;2022-07-22T01:36:40;16.00;99.90
37594;DHT22;23441;50.856;6.076;2022-07-22T01:39:06;16.00;99.90
37594;DHT22;23441;50.856;6.076;2022-07-22T01:41:32;15.90;99.90
37594;DHT22;23441;50.856;6.076;2022-07-22T01:43:58;15.90;99.90
37594;DHT22;23441;50.856;6.076;2022-07-22T01:46:24;16.00;99.90
37594;DHT22;23441;50.856;6.076;2022-07-22T01:48:51;15.90;99.90
37594;DHT22;23441;50.856;6.076;2022-07-22T01:51:18;15.90;99.90
37594;DHT22;23441;50.856;6.076;2022-07-22T01:53:44;16.00;99.90
37594;DHT22;23441;50.856;6.076;2022-07-22T01:56:10;16.10;99.90
37594;DHT22;23441;50.856;6.076;2022-07-22T01:58:36;16.00;99.90
37594;DHT22;23441;50.856;6.076;2022-07-22T02:01:02;16.00;99.90
37594;DHT22;23441;50.856;6.076;2022-07-22T02:03:28;16.00;99.90
37594;DHT22;23441;50.856;6.076;2022-07-22T02:05:54;16.10;99.90
37594;DHT22;23441;50.856;6.076;2022-07-22T02:08:21;16.00;99.90
37594;DHT22;23441;50.856;6.076;2022-07-22T02:10:47;16.00;99.90
37594;DHT22;23441;50.856;6.076;2022-07-22T02:13:13;16.00;99.90
37594;DHT22;23441;50.856;6.076;2022-07-22T02:15:39;16.00;99.90
37594;DHT22;23441;50.856;6.076;2022-07-22T02:18:16;16.00;99.90
37594;DHT22;23441;50.856;6.076;2022-07-22T02:20:44;16.00;99.90
37594;DHT22;23441;50.856;6.076;2022-07-22T02:23:11;16.00;99.90
37594;DHT22;23441;50.856;6.076;2022-07-22T02:25:38;16.00;99.90
37594;DHT22;23441;50.856;6.076;2022-07-22T02:28:05;15.90;99.90
37594;DHT22;23441;50.856;6.076;2022-07-22T02:30:31;15.90;99.90
37594;DHT22;23441;50.856;6.076;2022-07-22T02:32:58;15.90;99.90
37594;DHT22;23441;50.856;6.076;2022-07-22T02:35:24;15.90;99.90
37594;DHT22;23441;50.856;6.076;2022-07-22T02:37:50;15.90;99.90
37594;DHT22;23441;50.856;6.076;2022-07-22T02:40:16;16.00;99.90
37594;DHT22;23441;50.856;6.076;2022-07-22T02:42:42;15.90;99.90
37594;DHT22;23441;50.856;6.076;2022-07-22T02:45:09;15.90;99.90
37594;DHT22;23441;50.856;6.076;2022-07-22T02:47:43;15.90;99.90
37594;DHT22;23441;50.856;6.076;2022-07-22T02:50:13;15.80;99.90
37594;DHT22;23441;50.856;6.076;2022-07-22T02:52:39;15.80;99.90
37594;DHT22;23441;50.856;6.076;2022-07-22T02:55:05;15.80;99.90
37594;DHT22;23441;50.856;6.076;2022-07-22T02:57:31;15.80;99.90
37594;DHT22;23441;50.856;6.076;2022-07-22T02:59:57;15.80;99.90
37594;DHT22;23441;50.856;6.076;2022-07-22T03:02:23;15.80;99.90
37594;DHT22;23441;50.856;6.076;2022-07-22T03:04:49;15.90;99.90
37594;DHT22;23441;50.856;6.076;2022-07-22T03:07:15;15.90;99.90
37594;DHT22;23441;50.856;6.076;2022-07-22T03:09:40;15.90;99.90
37594;DHT22;23441;50.856;6.076;2022-07-22T03:12:07;15.90;99.90
37594;DHT22;23441;50.856;6.076;2022-07-22T03:14:33;15.90;99.90
37594;DHT22;23441;50.856;6.076;2022-07-22T03:16:59;15.90;99.90
37594;DHT22;23441;50.856;6.076;2022-07-22T03:19:25;15.90;99.90
37594;DHT22;23441;50.856;6.076;2022-07-22T03:21:51;15.90;99.90
37594;DHT22;23441;50.856;6.076;2022-07-22T03:24:17;15.80;99.90
37594;DHT22;23441;50.856;6.076;2022-07-22T03:26:42;15.80;99.90
37594;DHT22;23441;50.856;6.076;2022-07-22T03:29:08;15.80;99.90
37594;DHT22;23441;50.856;6.076;2022-07-22T03:31:34;15.70;99.90
37594;DHT22;23441;50.856;6.076;2022-07-22T03:34:00;15.80;99.90
37594;DHT22;23441;50.856;6.076;2022-07-22T03:36:27;15.70;99.90
37594;DHT22;23441;50.856;6.076;2022-07-22T03:38:55;15.70;99.90
37594;DHT22;23441;50.856;6.076;2022-07-22T03:41:21;15.70;99.90
37594;DHT22;23441;50.856;6.076;2022-07-22T03:43:47;15.70;99.90
37594;DHT22;23441;50.856;6.076;2022-07-22T03:46:13;15.70;99.90
37594;DHT22;23441;50.856;6.076;2022-07-22T03:48:39;15.70;99.90
37594;DHT22;23441;50.856;6.076;2022-07-22T03:51:05;15.70;99.90
37594;DHT22;23441;50.856;6.076;2022-07-22T03:53:32;15.60;99.90
37594;DHT22;23441;50.856;6.076;2022-07-22T03:56:00;15.70;99.90
37594;DHT22;23441;50.856;6.076;2022-07-22T03:58:26;15.70;99.90
37594;DHT22;23441;50.856;6.076;2022-07-22T04:00:53;15.70;99.90
37594;DHT22;23441;50.856;6.076;2022-07-22T04:03:20;15.70;99.90
37594;DHT22;23441;50.856;6.076;2022-07-22T04:05:46;15.70;99.90
37594;DHT22;23441;50.856;6.076;2022-07-22T04:08:12;15.70;99.90
37594;DHT22;23441;50.856;6.076;2022-07-22T04:10:38;15.70;99.90
37594;DHT22;23441;50.856;6.076;2022-07-22T04:13:05;15.70;99.90
37594;DHT22;23441;50.856;6.076;2022-07-22T04:15:31;15.70;99.90
37594;DHT22;23441;50.856;6.076;2022-07-22T04:17:57;15.70;99.90
37594;DHT22;23441;50.856;6.076;2022-07-22T04:20:23;15.70;99.90
37594;DHT22;23441;50.856;6.076;2022-07-22T04:22:49;15.70;99.90
37594;DHT22;23441;50.856;6.076;2022-07-22T04:25:15;15.70;99.90
37594;DHT22;23441;50.856;6.076;2022-07-22T04:27:41;15.70;99.90
37594;DHT22;23441;50.856;6.076;2022-07-22T04:30:07;15.70;99.90
37594;DHT22;23441;50.856;6.076;2022-07-22T04:32:34;15.70;99.90
37594;DHT22;23441;50.856;6.076;2022-07-22T04:35:00;15.80;99.90
37594;DHT22;23441;50.856;6.076;2022-07-22T04:37:25;15.80;99.90
37594;DHT22;23441;50.856;6.076;2022-07-22T04:39:52;15.70;99.90
37594;DHT22;23441;50.856;6.076;2022-07-22T04:42:18;15.80;99.90
37594;DHT22;23441;50.856;6.076;2022-07-22T04:44:43;15.80;99.90
37594;DHT22;23441;50.856;6.076;2022-07-22T04:47:11;15.80;99.90
37594;DHT22;23441;50.856;6.076;2022-07-22T04:49:37;15.80;99.90
37594;DHT22;23441;50.856;6.076;2022-07-22T04:52:03;15.80;99.90
37594;DHT22;23441;50.856;6.076;2022-07-22T04:54:29;15.80;99.90
37594;DHT22;23441;50.856;6.076;2022-07-22T04:56:55;15.90;99.90
37594;DHT22;23441;50.856;6.076;2022-07-22T04:59:21;15.90;99.90
37594;DHT22;23441;50.856;6.076;2022-07-22T05:01:47;15.90;99.90
37594;DHT22;23441;50.856;6.076;2022-07-22T05:04:13;15.90;99.90
37594;DHT22;23441;50.856;6.076;2022-07-22T05:06:39;15.80;99.90
37594;DHT22;23441;50.856;6.076;2022-07-22T05:09:05;15.90;99.90
37594;DHT22;23441;50.856;6.076;2022-07-22T05:11:31;15.90;99.90
37594;DHT22;23441;50.856;6.076;2022-07-22T05:13:57;15.90;99.90
37594;DHT22;23441;50.856;6.076;2022-07-22T05:16:23;16.00;99.90
37594;DHT22;23441;50.856;6.076;2022-07-22T05:18:49;16.10;99.90
37594;DHT22;23441;50.856;6.076;2022-07-22T05:21:15;16.10;99.90
37594;DHT22;23441;50.856;6.076;2022-07-22T05:23:41;16.10;99.90
37594;DHT22;23441;50.856;6.076;2022-07-22T05:26:08;16.10;99.90
37594;DHT22;23441;50.856;6.076;2022-07-22T05:28:34;16.10;99.90
37594;DHT22;23441;50.856;6.076;2022-07-22T05:31:00;16.10;99.90
37594;DHT22;23441;50.856;6.076;2022-07-22T05:33:27;16.20;99.90
37594;DHT22;23441;50.856;6.076;2022-07-22T05:35:53;16.10;99.90
37594;DHT22;23441;50.856;6.076;2022-07-22T05:38:19;16.00;99.90
37594;DHT22;23441;50.856;6.076;2022-07-22T05:40:45;16.10;99.90
37594;DHT22;23441;50.856;6.076;2022-07-22T05:43:11;16.10;99.90
37594;DHT22;23441;50.856;6.076;2022-07-22T05:45:37;16.10;99.90
37594;DHT22;23441;50.856;6.076;2022-07-22T05:48:04;16.20;99.90
37594;DHT22;23441;50.856;6.076;2022-07-22T05:50:30;16.20;99.90
37594;DHT22;23441;50.856;6.076;2022-07-22T05:52:56;16.30;99.90
37594;DHT22;23441;50.856;6.076;2022-07-22T05:55:22;16.40;99.90
37594;DHT22;23441;50.856;6.076;2022-07-22T05:57:47;16.40;99.90
37594;DHT22;23441;50.856;6.076;2022-07-22T06:00:14;16.50;99.90
37594;DHT22;23441;50.856;6.076;2022-07-22T06:02:40;16.60;99.90
37594;DHT22;23441;50.856;6.076;2022-07-22T06:05:06;16.60;99.90
37594;DHT22;23441;50.856;6.076;2022-07-22T06:07:32;16.70;99.90
37594;DHT22;23441;50.856;6.076;2022-07-22T06:09:58;16.80;99.90
37594;DHT22;23441;50.856;6.076;2022-07-22T06:12:24;16.80;99.90
37594;DHT22;23441;50.856;6.076;2022-07-22T06:14:50;16.90;99.90
37594;DHT22;23441;50.856;6.076;2022-07-22T06:17:16;17.10;99.90
37594;DHT22;23441;50.856;6.076;2022-07-22T06:19:42;17.30;99.90
37594;DHT22;23441;50.856;6.076;2022-07-22T06:22:08;17.40;99.90
37594;DHT22;23441;50.856;6.076;2022-07-22T06:24:34;17.50;99.90
37594;DHT22;23441;50.856;6.076;2022-07-22T06:27:00;17.60;99.90
37594;DHT22;23441;50.856;6.076;2022-07-22T06:29:26;17.80;99.90
37594;DHT22;23441;50.856;6.076;2022-07-22T06:31:52;17.90;99.90
37594;DHT22;23441;50.856;6.076;2022-07-22T06:34:18;18.10;99.90
37594;DHT22;23441;50.856;6.076;2022-07-22T06:36:44;18.20;99.90
37594;DHT22;23441;50.856;6.076;2022-07-22T06:39:11;18.30;99.90
37594;DHT22;23441;50.856;6.076;2022-07-22T06:41:37;18.30;99.90
37594;DHT22;23441;50.856;6.076;2022-07-22T06:44:03;18.30;99.90
37594;DHT22;23441;50.856;6.076;2022-07-22T06:46:29;18.30;99.90
37594;DHT22;23441;50.856;6.076;2022-07-22T06:48:55;18.30;99.90
37594;DHT22;23441;50.856;6.076;2022-07-22T06:51:21;18.20;99.90
37594;DHT22;23441;50.856;6.076;2022-07-22T06:53:47;18.10;99.90
37594;DHT22;23441;50.856;6.076;2022-07-22T06:56:13;18.00;99.90
37594;DHT22;23441;50.856;6.076;2022-07-22T06:58:39;18.00;99.90
37594;DHT22;23441;50.856;6.076;2022-07-22T07:01:05;18.00;99.90
37594;DHT22;23441;50.856;6.076;2022-07-22T07:03:31;18.10;99.90
37594;DHT22;23441;50.856;6.076;2022-07-22T07:05:57;18.20;99.90
37594;DHT22;23441;50.856;6.076;2022-07-22T07:08:23;18.80;99.90
37594;DHT22;23441;50.856;6.076;2022-07-22T07:10:49;19.20;99.90
37594;DHT22;23441;50.856;6.076;2022-07-22T07:13:15;19.20;99.90
37594;DHT22;23441;50.856;6.076;2022-07-22T07:15:41;18.90;99.90
37594;DHT22;23441;50.856;6.076;2022-07-22T07:18:07;18.70;99.90
37594;DHT22;23441;50.856;6.076;2022-07-22T07:20:33;18.80;99.90
37594;DHT22;23441;50.856;6.076;2022-07-22T07:23:00;18.80;99.90
37594;DHT22;23441;50.856;6.076;2022-07-22T07:25:27;18.90;99.90
37594;DHT22;23441;50.856;6.076;2022-07-22T07:27:54;19.00;99.90
37594;DHT22;23441;50.856;6.076;2022-07-22T07:30:20;19.30;99.90
37594;DHT22;23441;50.856;6.076;2022-07-22T07:32:46;19.80;99.90
37594;DHT22;23441;50.856;6.076;2022-07-22T07:35:12;19.90;99.90
37594;DHT22;23441;50.856;6.076;2022-07-22T07:37:38;20.00;99.90
37594;DHT22;23441;50.856;6.076;2022-07-22T07:40:05;19.80;99.90
37594;DHT22;23441;50.856;6.076;2022-07-22T07:42:31;19.80;99.90
37594;DHT22;23441;50.856;6.076;2022-07-22T07:44:58;20.00;99.90
37594;DHT22;23441;50.856;6.076;2022-07-22T07:47:24;19.90;99.90
37594;DHT22;23441;50.856;6.076;2022-07-22T07:49:50;19.90;99.90
37594;DHT22;23441;50.856;6.076;2022-07-22T07:52:16;20.10;99.90
37594;DHT22;23441;50.856;6.076;2022-07-22T07:54:44;20.50;99.90
37594;DHT22;23441;50.856;6.076;2022-07-22T07:57:11;20.80;99.90
37594;DHT22;23441;50.856;6.076;2022-07-22T07:59:38;21.30;99.90
37594;DHT22;23441;50.856;6.076;2022-07-22T08:02:05;21.90;99.90
37594;DHT22;23441;50.856;6.076;2022-07-22T08:04:32;21.80;99.90
37594;DHT22;23441;50.856;6.076;2022-07-22T08:06:58;21.50;99.90
37594;DHT22;23441;50.856;6.076;2022-07-22T08:09:24;21.20;99.90
37594;DHT22;23441;50.856;6.076;2022-07-22T08:11:50;21.10;99.90
37594;DHT22;23441;50.856;6.076;2022-07-22T08:14:16;20.60;99.90
37594;DHT22;23441;50.856;6.076;2022-07-22T08:16:42;20.40;99.90
37594;DHT22;23441;50.856;6.076;2022-07-22T08:19:08;20.90;99.90
37594;DHT22;23441;50.856;6.076;2022-07-22T08:21:34;20.80;99.90
37594;DHT22;23441;50.856;6.076;2022-07-22T08:24:00;21.10;99.90
37594;DHT22;23441;50.856;6.076;2022-07-22T08:26:27;20.70;99.90
37594;DHT22;23441;50.856;6.076;2022-07-22T08:28:53;20.70;99.90
37594;DHT22;23441;50.856;6.076;2022-07-22T08:31:19;20.60;99.90
37594;DHT22;23441;50.856;6.076;2022-07-22T08:33:45;20.90;99.90
37594;DHT22;23441;50.856;6.076;2022-07-22T08:36:11;21.00;99.90
37594;DHT22;23441;50.856;6.076;2022-07-22T08:38:37;21.20;99.90
37594;DHT22;23441;50.856;6.076;2022-07-22T08:41:03;21.00;99.90
37594;DHT22;23441;50.856;6.076;2022-07-22T08:43:31;21.00;99.90
37594;DHT22;23441;50.856;6.076;2022-07-22T08:46:01;20.90;99.90
37594;DHT22;23441;50.856;6.076;2022-07-22T08:48:27;21.00;99.90
37594;DHT22;23441;50.856;6.076;2022-07-22T08:50:53;20.70;99.90
37594;DHT22;23441;50.856;6.076;2022-07-22T08:53:19;21.90;99.90
37594;DHT22;23441;50.856;6.076;2022-07-22T08:55:47;22.30;99.90
37594;DHT22;23441;50.856;6.076;2022-07-22T08:58:14;22.10;99.90
37594;DHT22;23441;50.856;6.076;2022-07-22T09:00:40;22.40;99.90
37594;DHT22;23441;50.856;6.076;2022-07-22T09:03:35;21.60;99.90
37594;DHT22;23441;50.856;6.076;2022-07-22T09:06:25;21.50;99.90
37594;DHT22;23441;50.856;6.076;2022-07-22T09:09:05;21.60;99.90
37594;DHT22;23441;50.856;6.076;2022-07-22T09:11:34;21.40;99.90
37594;DHT22;23441;50.856;6.076;2022-07-22T09:14:01;21.80;99.90
37594;DHT22;23441;50.856;6.076;2022-07-22T09:16:46;22.20;99.90
37594;DHT22;23441;50.856;6.076;2022-07-22T09:19:14;22.40;99.90
37594;DHT22;23441;50.856;6.076;2022-07-22T09:21:45;23.00;99.90
37594;DHT22;23441;50.856;6.076;2022-07-22T09:24:35;23.20;99.90
37594;DHT22;23441;50.856;6.076;2022-07-22T09:27:01;22.50;99.90
37594;DHT22;23441;50.856;6.076;2022-07-22T09:29:27;22.70;99.90
37594;DHT22;23441;50.856;6.076;2022-07-22T09:31:53;23.00;99.90
37594;DHT22;23441;50.856;6.076;2022-07-22T09:34:27;23.60;99.90
37594;DHT22;23441;50.856;6.076;2022-07-22T09:36:59;24.10;99.90
37594;DHT22;23441;50.856;6.076;2022-07-22T09:39:30;24.00;99.90
37594;DHT22;23441;50.856;6.076;2022-07-22T09:42:05;23.90;99.90
37594;DHT22;23441;50.856;6.076;2022-07-22T09:44:32;24.10;99.90
37594;DHT22;23441;50.856;6.076;2022-07-22T09:46:58;23.70;99.90
37594;DHT22;23441;50.856;6.076;2022-07-22T09:49:36;23.20;99.90
37594;DHT22;23441;50.856;6.076;2022-07-22T09:52:06;23.40;99.90
37594;DHT22;23441;50.856;6.076;2022-07-22T09:54:32;23.00;99.90
37594;DHT22;23441;50.856;6.076;2022-07-22T09:56:58;23.20;99.90
37594;DHT22;23441;50.856;6.076;2022-07-22T09:59:25;23.00;99.90
37594;DHT22;23441;50.856;6.076;2022-07-22T10:01:54;22.70;99.90
37594;DHT22;23441;50.856;6.076;2022-07-22T10:04:24;23.00;99.90
37594;DHT22;23441;50.856;6.076;2022-07-22T10:06:51;23.20;99.90
37594;DHT22;23441;50.856;6.076;2022-07-22T10:09:17;23.40;99.90
37594;DHT22;23441;50.856;6.076;2022-07-22T10:11:44;23.40;99.90
37594;DHT22;23441;50.856;6.076;2022-07-22T10:14:14;23.10;99.90
37594;DHT22;23441;50.856;6.076;2022-07-22T10:16:40;22.90;99.90
37594;DHT22;23441;50.856;6.076;2022-07-22T10:19:06;22.70;99.90
37594;DHT22;23441;50.856;6.076;2022-07-22T10:21:33;22.40;99.90
37594;DHT22;23441;50.856;6.076;2022-07-22T10:24:10;22.80;99.90
37594;DHT22;23441;50.856;6.076;2022-07-22T10:26:51;22.70;99.90
37594;DHT22;23441;50.856;6.076;2022-07-22T10:37:44;23.30;99.90
37594;DHT22;23441;50.856;6.076;2022-07-22T10:40:25;24.20;99.90
37594;DHT22;23441;50.856;6.076;2022-07-22T10:45:24;25.00;99.90
37594;DHT22;23441;50.856;6.076;2022-07-22T10:47:57;26.00;99.90
37594;DHT22;23441;50.856;6.076;2022-07-22T10:53:20;26.70;98.90
37594;DHT22;23441;50.856;6.076;2022-07-22T10:56:16;26.40;99.90
37594;DHT22;23441;50.856;6.076;2022-07-22T10:58:56;25.80;99.50
37594;DHT22;23441;50.856;6.076;2022-07-22T11:01:28;25.70;98.80
37594;DHT22;23441;50.856;6.076;2022-07-22T11:04:11;25.40;99.20
37594;DHT22;23441;50.856;6.076;2022-07-22T11:06:45;25.70;98.40
37594;DHT22;23441;50.856;6.076;2022-07-22T11:09:13;26.20;99.60
37594;DHT22;23441;50.856;6.076;2022-07-22T11:11:46;26.30;97.30
37594;DHT22;23441;50.856;6.076;2022-07-22T11:14:27;25.70;99.10
37594;DHT22;23441;50.856;6.076;2022-07-22T11:19:36;25.30;98.10
37594;DHT22;23441;50.856;6.076;2022-07-22T11:22:11;24.90;99.30
37594;DHT22;23441;50.856;6.076;2022-07-22T11:24:40;25.10;99.90
37594;DHT22;23441;50.856;6.076;2022-07-22T11:27:13;25.10;99.00
37594;DHT22;23441;50.856;6.076;2022-07-22T11:29:48;25.30;99.90
37594;DHT22;23441;50.856;6.076;2022-07-22T11:32:16;25.20;99.90
37594;DHT22;23441;50.856;6.076;2022-07-22T11:34:44;24.90;99.40
37594;DHT22;23441;50.856;6.076;2022-07-22T11:37:13;25.20;99.90
37594;DHT22;23441;50.856;6.076;2022-07-22T11:39:39;25.00;99.90
37594;DHT22;23441;50.856;6.076;2022-07-22T11:42:06;24.90;99.70
37594;DHT22;23441;50.856;6.076;2022-07-22T11:44:36;24.70;99.90
37594;DHT22;23441;50.856;6.076;2022-07-22T11:47:03;25.30;99.60
37594;DHT22;23441;50.856;6.076;2022-07-22T11:49:32;25.20;97.90
37594;DHT22;23441;50.856;6.076;2022-07-22T11:52:00;25.40;99.90
37594;DHT22;23441;50.856;6.076;2022-07-22T11:54:27;25.60;99.90
37594;DHT22;23441;50.856;6.076;2022-07-22T11:56:53;25.70;98.40
37594;DHT22;23441;50.856;6.076;2022-07-22T11:59:19;25.70;99.90
37594;DHT22;23441;50.856;6.076;2022-07-22T12:01:47;25.50;98.30
37594;DHT22;23441;50.856;6.076;2022-07-22T12:04:20;25.50;99.90
37594;DHT22;23441;50.856;6.076;2022-07-22T12:06:48;25.30;99.90
37594;DHT22;23441;50.856;6.076;2022-07-22T12:09:20;24.80;97.80
37594;DHT22;23441;50.856;6.076;2022-07-22T12:11:49;25.20;99.90
37594;DHT22;23441;50.856;6.076;2022-07-22T12:14:19;25.40;99.00
37594;DHT22;23441;50.856;6.076;2022-07-22T12:16:56;25.10;98.70
37594;DHT22;23441;50.856;6.076;2022-07-22T12:19:24;25.10;98.20
37594;DHT22;23441;50.856;6.076;2022-07-22T12:21:54;25.10;99.90
37594;DHT22;23441;50.856;6.076;2022-07-22T12:24:43;25.50;98.00
37594;DHT22;23441;50.856;6.076;2022-07-22T12:27:15;25.10;97.20
37594;DHT22;23441;50.856;6.076;2022-07-22T12:29:47;25.30;99.60
37594;DHT22;23441;50.856;6.076;2022-07-22T12:32:18;25.20;99.90
37594;DHT22;23441;50.856;6.076;2022-07-22T12:35:01;25.50;99.60
37594;DHT22;23441;50.856;6.076;2022-07-22T12:37:42;26.00;98.20
37594;DHT22;23441;50.856;6.076;2022-07-22T12:40:17;25.80;96.70
37594;DHT22;23441;50.856;6.076;2022-07-22T12:43:23;25.90;99.90
37594;DHT22;23441;50.856;6.076;2022-07-22T12:45:38;25.60;98.70
37594;DHT22;23441;50.856;6.076;2022-07-22T12:48:05;25.80;97.40
37594;DHT22;23441;50.856;6.076;2022-07-22T12:50:40;25.90;97.90
37594;DHT22;23441;50.856;6.076;2022-07-22T12:53:18;26.20;97.40
37594;DHT22;23441;50.856;6.076;2022-07-22T12:55:53;26.60;99.30
37594;DHT22;23441;50.856;6.076;2022-07-22T12:58:22;25.90;96.80
37594;DHT22;23441;50.856;6.076;2022-07-22T13:00:52;25.80;96.60
37594;DHT22;23441;50.856;6.076;2022-07-22T13:03:26;25.40;98.00
37594;DHT22;23441;50.856;6.076;2022-07-22T13:05:58;25.40;99.90
37594;DHT22;23441;50.856;6.076;2022-07-22T13:08:26;26.00;97.70
37594;DHT22;23441;50.856;6.076;2022-07-22T13:10:53;26.60;99.90
37594;DHT22;23441;50.856;6.076;2022-07-22T13:13:20;26.40;97.40
37594;DHT22;23441;50.856;6.076;2022-07-22T13:15:47;25.60;96.50
37594;DHT22;23441;50.856;6.076;2022-07-22T13:18:13;25.60;99.90
37594;DHT22;23441;50.856;6.076;2022-07-22T13:20:40;25.40;96.10
37594;DHT22;23441;50.856;6.076;2022-07-22T13:23:06;25.50;96.50
37594;DHT22;23441;50.856;6.076;2022-07-22T13:25:32;25.70;98.60
37594;DHT22;23441;50.856;6.076;2022-07-22T13:27:59;25.40;96.80
37594;DHT22;23441;50.856;6.076;2022-07-22T13:30:25;25.50;99.90
37594;DHT22;23441;50.856;6.076;2022-07-22T13:32:51;25.90;99.70
37594;DHT22;23441;50.856;6.076;2022-07-22T13:35:18;25.90;99.90
37594;DHT22;23441;50.856;6.076;2022-07-22T13:37:44;25.90;99.90
37594;DHT22;23441;50.856;6.076;2022-07-22T13:40:11;26.00;98.80
37594;DHT22;23441;50.856;6.076;2022-07-22T13:42:37;25.90;98.70
37594;DHT22;23441;50.856;6.076;2022-07-22T13:45:04;25.70;96.80
37594;DHT22;23441;50.856;6.076;2022-07-22T13:47:31;25.70;97.90
37594;DHT22;23441;50.856;6.076;2022-07-22T13:49:57;25.70;95.80
37594;DHT22;23441;50.856;6.076;2022-07-22T13:52:23;25.70;98.40
37594;DHT22;23441;50.856;6.076;2022-07-22T13:54:50;25.70;98.80
37594;DHT22;23441;50.856;6.076;2022-07-22T13:57:16;25.90;99.10
37594;DHT22;23441;50.856;6.076;2022-07-22T13:59:42;26.40;99.90
37594;DHT22;23441;50.856;6.076;2022-07-22T14:02:09;26.90;97.90
37594;DHT22;23441;50.856;6.076;2022-07-22T14:04:35;26.90;95.90
37594;DHT22;23441;50.856;6.076;2022-07-22T14:07:01;25.80;94.50
37594;DHT22;23441;50.856;6.076;2022-07-22T14:09:26;26.20;96.50
37594;DHT22;23441;50.856;6.076;2022-07-22T14:11:52;26.70;95.70
37594;DHT22;23441;50.856;6.076;2022-07-22T14:14:18;26.20;96.30
37594;DHT22;23441;50.856;6.076;2022-07-22T14:16:44;26.40;98.60
37594;DHT22;23441;50.856;6.076;2022-07-22T14:19:12;26.40;97.10
37594;DHT22;23441;50.856;6.076;2022-07-22T14:21:42;26.00;99.90
37594;DHT22;23441;50.856;6.076;2022-07-22T14:24:10;26.30;98.40
37594;DHT22;23441;50.856;6.076;2022-07-22T14:26:36;26.50;98.10
37594;DHT22;23441;50.856;6.076;2022-07-22T14:29:05;26.60;98.20
37594;DHT22;23441;50.856;6.076;2022-07-22T14:31:32;26.40;96.90
37594;DHT22;23441;50.856;6.076;2022-07-22T14:33:58;26.40;96.40
37594;DHT22;23441;50.856;6.076;2022-07-22T14:36:24;25.90;96.10
37594;DHT22;23441;50.856;6.076;2022-07-22T14:38:51;25.70;97.90
37594;DHT22;23441;50.856;6.076;2022-07-22T14:41:20;25.90;99.50
37594;DHT22;23441;50.856;6.076;2022-07-22T14:43:46;25.90;99.60
37594;DHT22;23441;50.856;6.076;2022-07-22T14:46:12;25.80;98.70
37594;DHT22;23441;50.856;6.076;2022-07-22T14:48:38;25.90;99.90
37594;DHT22;23441;50.856;6.076;2022-07-22T14:51:05;25.80;98.10
37594;DHT22;23441;50.856;6.076;2022-07-22T14:53:31;25.70;97.40
37594;DHT22;23441;50.856;6.076;2022-07-22T14:55:58;25.80;98.30
37594;DHT22;23441;50.856;6.076;2022-07-22T14:58:24;25.70;97.10
37594;DHT22;23441;50.856;6.076;2022-07-22T15:00:51;25.40;97.10
37594;DHT22;23441;50.856;6.076;2022-07-22T15:03:17;25.30;95.60
37594;DHT22;23441;50.856;6.076;2022-07-22T15:05:43;25.60;99.90
37594;DHT22;23441;50.856;6.076;2022-07-22T15:08:09;25.60;95.90
37594;DHT22;23441;50.856;6.076;2022-07-22T15:10:36;25.50;96.10
37594;DHT22;23441;50.856;6.076;2022-07-22T15:13:03;25.80;97.30
37594;DHT22;23441;50.856;6.076;2022-07-22T15:15:29;25.90;95.90
37594;DHT22;23441;50.856;6.076;2022-07-22T15:17:55;25.50;96.50
37594;DHT22;23441;50.856;6.076;2022-07-22T15:20:23;25.90;95.90
37594;DHT22;23441;50.856;6.076;2022-07-22T15:22:49;25.30;96.10
37594;DHT22;23441;50.856;6.076;2022-07-22T15:25:15;25.10;97.20
37594;DHT22;23441;50.856;6.076;2022-07-22T15:27:41;25.60;99.80
37594;DHT22;23441;50.856;6.076;2022-07-22T15:30:09;26.10;97.10
37594;DHT22;23441;50.856;6.076;2022-07-22T15:32:37;26.30;95.40
37594;DHT22;23441;50.856;6.076;2022-07-22T15:35:04;26.20;97.90
37594;DHT22;23441;50.856;6.076;2022-07-22T15:37:31;26.20;95.90
37594;DHT22;23441;50.856;6.076;2022-07-22T15:39:56;26.30;96.50
37594;DHT22;23441;50.856;6.076;2022-07-22T15:42:22;26.10;97.00
37594;DHT22;23441;50.856;6.076;2022-07-22T15:44:48;26.20;98.50
37594;DHT22;23441;50.856;6.076;2022-07-22T15:47:14;26.00;95.10
37594;DHT22;23441;50.856;6.076;2022-07-22T15:49:40;26.00;97.50